createdAt,value
2023-03-14T00:01:21.150Z,8.75
2023-03-14T00:03:49.138Z,5.70
2023-03-14T00:06:16.809Z,8.48
2023-03-14T00:08:45.173Z,10.48
2023-03-14T00:11:16.471Z,10.63
2023-03-14T00:13:43.724Z,12.30
2023-03-14T00:16:13.594Z,10.52
2023-03-14T00:18:41.821Z,16.65
2023-03-14T00:21:11.651Z,20.00
2023-03-14T00:23:41.596Z,15.38
2023-03-14T00:26:15.209Z,13.30
2023-03-14T00:28:43.262Z,14.55
2023-03-14T00:31:14.349Z,19.58
2023-03-14T00:33:42.944Z,17.95
2023-03-14T00:36:14.771Z,6.75
2023-03-14T00:38:43.665Z,12.88
2023-03-14T00:41:15.217Z,10.10
2023-03-14T00:43:42.355Z,5.60
2023-03-14T00:46:10.045Z,11.80
2023-03-14T00:48:37.287Z,14.65
2023-03-14T00:51:09.928Z,8.10
2023-03-14T00:53:41.668Z,20.25
2023-03-14T00:56:12.665Z,22.92
2023-03-14T00:58:40.193Z,26.52
2023-03-14T01:01:17.282Z,13.55
2023-03-14T01:03:44.480Z,11.82
2023-03-14T01:06:18.982Z,7.85
2023-03-14T01:08:47.506Z,9.45
2023-03-14T01:11:21.533Z,7.65
2023-03-14T01:13:51.298Z,7.03
2023-03-14T01:16:20.862Z,8.23
2023-03-14T01:18:48.592Z,9.85
2023-03-14T01:21:27.751Z,7.00
2023-03-14T01:23:58.034Z,3.38
2023-03-14T01:26:28.072Z,5.80
2023-03-14T01:28:56.484Z,3.83
2023-03-14T01:31:25.338Z,4.78
2023-03-14T01:33:52.516Z,3.90
2023-03-14T01:36:20.453Z,5.15
2023-03-14T01:38:47.717Z,9.98
2023-03-14T01:41:24.586Z,7.32
2023-03-14T01:43:53.827Z,3.25
2023-03-14T01:46:31.528Z,7.53
2023-03-14T01:49:11.893Z,4.43
2023-03-14T01:51:57.541Z,7.97
2023-03-14T01:54:49.010Z,4.35
2023-03-14T01:57:23.327Z,5.30
2023-03-14T02:00:14.818Z,6.80
2023-03-14T02:02:49.073Z,6.10
2023-03-14T02:05:24.209Z,6.18
2023-03-14T02:08:06.762Z,8.80
2023-03-14T02:10:48.060Z,4.43
2023-03-14T02:13:20.699Z,10.73
2023-03-14T02:16:01.203Z,10.13
2023-03-14T02:18:46.761Z,15.82
2023-03-14T02:22:01.646Z,7.15
2023-03-14T02:25:10.225Z,11.77
2023-03-14T02:27:38.349Z,8.13
2023-03-14T02:30:12.649Z,8.48
2023-03-14T02:32:47.155Z,11.85
2023-03-14T02:35:22.212Z,13.88
2023-03-14T02:38:15.833Z,8.55
2023-03-14T02:40:45.868Z,11.40
2023-03-14T02:43:12.985Z,6.70
2023-03-14T02:45:49.405Z,6.13
2023-03-14T02:48:47.595Z,9.63
2023-03-14T02:51:17.083Z,7.85
2023-03-14T02:53:47.485Z,10.40
2023-03-14T02:56:15.199Z,10.68
2023-03-14T02:58:42.187Z,6.07
2023-03-14T03:01:29.354Z,8.98
2023-03-14T03:03:56.402Z,6.93
2023-03-14T03:06:23.443Z,9.65
2023-03-14T03:08:50.979Z,8.48
2023-03-14T03:11:18.128Z,10.15
2023-03-14T03:13:45.091Z,11.05
2023-03-14T03:16:14.580Z,4.75
2023-03-14T03:18:41.943Z,6.78
2023-03-14T03:21:10.425Z,8.70
2023-03-14T03:23:37.531Z,8.82
2023-03-14T03:26:06.787Z,7.18
2023-03-14T03:28:33.737Z,7.38
2023-03-14T03:31:08.064Z,10.90
2023-03-14T03:33:37.960Z,6.80
2023-03-14T03:36:07.855Z,14.90
2023-03-14T03:38:41.285Z,8.20
2023-03-14T03:41:27.759Z,4.63
2023-03-14T03:43:55.440Z,8.63
2023-03-14T03:46:56.721Z,11.52
2023-03-14T03:52:53.425Z,6.90
2023-03-14T03:56:30.908Z,8.82
2023-03-14T04:11:18.295Z,7.65
2023-03-14T04:14:41.752Z,6.70
2023-03-14T04:18:31.907Z,7.05
2023-03-14T04:26:29.642Z,5.82
2023-03-14T04:32:24.197Z,3.50
2023-03-14T04:41:00.172Z,5.07
2023-03-14T04:43:41.457Z,9.95
2023-03-14T04:46:21.512Z,10.10
2023-03-14T04:48:52.481Z,7.25
2023-03-14T04:51:28.479Z,7.28
2023-03-14T04:54:24.567Z,6.20
2023-03-14T04:56:59.365Z,7.75
2023-03-14T04:59:36.992Z,4.40
2023-03-14T05:02:40.753Z,4.35
2023-03-14T05:05:36.564Z,10.45
2023-03-14T05:08:50.421Z,4.70
2023-03-14T05:12:13.282Z,6.57
2023-03-14T05:18:39.012Z,7.88
2023-03-14T05:21:22.444Z,3.20
2023-03-14T05:24:58.785Z,6.43
2023-03-14T05:27:56.949Z,5.03
2023-03-14T05:30:51.802Z,6.47
2023-03-14T05:40:37.042Z,7.03
2023-03-14T05:43:52.168Z,5.45
2023-03-14T05:47:03.522Z,8.00
2023-03-14T05:50:02.882Z,12.27
2023-03-14T05:53:17.149Z,13.70
2023-03-14T05:56:14.425Z,11.07
2023-03-14T05:58:54.405Z,7.63
2023-03-14T06:01:53.680Z,13.05
2023-03-14T06:04:27.439Z,13.82
2023-03-14T06:07:07.869Z,11.98
2023-03-14T06:10:06.538Z,6.75
2023-03-14T06:12:34.865Z,12.77
2023-03-14T06:15:15.707Z,9.15
2023-03-14T06:18:11.976Z,15.88
2023-03-14T06:21:06.315Z,13.48
2023-03-14T06:23:38.633Z,11.25
2023-03-14T06:26:07.082Z,10.45
2023-03-14T06:29:00.600Z,9.85
2023-03-14T06:31:28.077Z,7.03
2023-03-14T06:37:24.988Z,9.45
2023-03-14T06:39:53.820Z,5.82
2023-03-14T06:42:45.394Z,7.80
2023-03-14T06:45:15.338Z,4.22
2023-03-14T06:47:44.078Z,6.68
2023-03-14T06:50:15.597Z,4.65
2023-03-14T06:52:49.029Z,6.53
2023-03-14T06:55:24.746Z,6.15
2023-03-14T06:57:51.859Z,8.38
2023-03-14T07:00:19.869Z,3.03
2023-03-14T07:02:47.124Z,3.75
2023-03-14T07:05:30.478Z,5.28
2023-03-14T07:07:59.679Z,3.42
2023-03-14T07:10:26.852Z,4.90
2023-03-14T07:12:54.859Z,4.82
2023-03-14T07:15:24.184Z,4.68
2023-03-14T07:17:56.576Z,5.70
2023-03-14T07:20:28.689Z,5.60
2023-03-14T07:22:56.264Z,5.05
2023-03-14T07:25:35.907Z,10.57
2023-03-14T07:28:02.925Z,5.70
2023-03-14T07:30:31.152Z,5.25
2023-03-14T07:33:02.212Z,2.78
2023-03-14T07:35:29.812Z,3.45
2023-03-14T07:37:57.176Z,3.03
2023-03-14T07:40:31.446Z,5.18
2023-03-14T07:43:00.185Z,5.20
2023-03-14T07:45:42.469Z,10.13
2023-03-14T07:48:11.046Z,9.27
2023-03-14T07:50:40.039Z,3.92
2023-03-14T07:53:07.675Z,5.45
2023-03-14T07:55:34.961Z,3.33
2023-03-14T07:58:02.641Z,3.30
2023-03-14T08:00:29.896Z,7.30
2023-03-14T08:02:59.914Z,3.25
2023-03-14T08:05:27.293Z,2.30
2023-03-14T08:07:56.332Z,4.03
2023-03-14T08:10:24.368Z,4.30
2023-03-14T08:13:01.234Z,5.55
2023-03-14T08:15:31.939Z,6.78
2023-03-14T08:18:00.627Z,6.68
2023-03-14T08:20:32.678Z,6.72
2023-03-14T08:23:03.176Z,6.25
2023-03-14T08:25:31.813Z,5.35
2023-03-14T08:27:58.855Z,3.30
2023-03-14T08:30:27.695Z,2.85
2023-03-14T08:32:57.247Z,3.22
2023-03-14T08:35:26.446Z,2.65
2023-03-14T08:37:54.851Z,1.30
2023-03-14T08:40:22.019Z,1.00
2023-03-14T08:42:52.030Z,1.85
2023-03-14T08:45:20.886Z,4.45
2023-03-14T08:47:49.107Z,1.50
2023-03-14T08:50:19.134Z,1.45
2023-03-14T08:52:47.262Z,1.55
2023-03-14T08:55:17.571Z,1.30
2023-03-14T08:57:45.401Z,1.75
2023-03-14T09:00:16.132Z,2.50
2023-03-14T09:02:46.671Z,1.20
2023-03-14T09:05:17.398Z,2.47
2023-03-14T09:07:48.114Z,0.40
2023-03-14T09:10:15.474Z,0.88
2023-03-14T09:12:42.857Z,0.82
2023-03-14T09:15:10.556Z,0.38
2023-03-14T09:17:38.346Z,0.70
2023-03-14T09:20:08.851Z,1.83
2023-03-14T09:22:36.681Z,1.23
2023-03-14T09:25:05.564Z,0.68
2023-03-14T09:27:33.060Z,0.38
2023-03-14T09:30:00.379Z,0.95
2023-03-14T09:32:28.390Z,2.08
2023-03-14T09:34:55.789Z,3.30
2023-03-14T09:37:24.016Z,1.73
2023-03-14T09:39:51.509Z,2.33
2023-03-14T09:42:26.462Z,3.10
2023-03-14T09:45:09.147Z,1.63
2023-03-14T09:47:39.546Z,1.38
2023-03-14T09:50:18.318Z,2.83
2023-03-14T09:52:53.224Z,4.05
2023-03-14T09:55:23.998Z,3.05
2023-03-14T09:58:00.141Z,2.45
2023-03-14T10:00:31.816Z,1.25
2023-03-14T10:03:14.670Z,1.48
2023-03-14T10:05:43.177Z,0.77
2023-03-14T10:08:15.321Z,1.80
2023-03-14T10:10:43.446Z,3.50
2023-03-14T10:13:29.316Z,1.00
2023-03-14T10:16:04.267Z,1.85
2023-03-14T10:18:35.509Z,2.38
2023-03-14T10:21:30.293Z,1.23
2023-03-14T10:24:28.261Z,1.97
2023-03-14T10:27:02.323Z,2.58
2023-03-14T10:29:32.183Z,3.17
2023-03-14T10:32:08.771Z,2.83
2023-03-14T10:34:41.335Z,1.02
2023-03-14T10:37:22.174Z,3.20
2023-03-14T10:39:54.040Z,1.65
2023-03-14T10:42:30.723Z,3.75
2023-03-14T10:45:04.736Z,1.05
2023-03-14T10:47:33.864Z,1.92
2023-03-14T10:50:31.968Z,1.00
2023-03-14T10:53:07.902Z,2.78
2023-03-14T10:55:46.189Z,3.17
2023-03-14T10:58:31.679Z,1.88
2023-03-14T11:01:22.645Z,0.57
2023-03-14T11:04:18.053Z,1.60
2023-03-14T11:07:33.750Z,2.85
2023-03-14T11:10:35.034Z,1.95
2023-03-14T11:13:26.414Z,2.38
2023-03-14T11:16:48.378Z,1.25
2023-03-14T11:19:57.361Z,2.50
2023-03-14T11:22:53.659Z,2.92
2023-03-14T11:25:44.196Z,1.95
2023-03-14T11:28:25.623Z,3.80
2023-03-14T11:31:06.137Z,4.07
2023-03-14T11:34:08.110Z,1.80
2023-03-14T11:36:54.169Z,3.95
2023-03-14T11:39:21.954Z,1.33
2023-03-14T11:41:56.274Z,1.75
2023-03-14T11:44:37.910Z,3.40
2023-03-14T11:47:21.684Z,1.33
2023-03-14T11:50:14.030Z,2.53
2023-03-14T11:53:04.807Z,1.48
2023-03-14T11:55:36.271Z,4.15
2023-03-14T11:58:14.842Z,2.13
2023-03-14T12:00:43.047Z,1.50
2023-03-14T12:03:47.678Z,3.90
2023-03-14T12:06:34.818Z,5.22
2023-03-14T12:09:04.871Z,3.75
2023-03-14T12:11:57.460Z,4.05
2023-03-14T12:14:36.872Z,4.25
2023-03-14T12:17:37.077Z,4.40
2023-03-14T12:20:15.232Z,4.57
2023-03-14T12:22:51.685Z,4.00
2023-03-14T12:25:28.953Z,6.35
2023-03-14T12:27:57.138Z,7.93
2023-03-14T12:30:31.906Z,5.13
2023-03-14T12:33:13.856Z,10.35
2023-03-14T12:35:44.544Z,7.63
2023-03-14T12:38:18.200Z,8.18
2023-03-14T12:41:15.212Z,5.78
2023-03-14T12:43:42.853Z,9.95
2023-03-14T12:46:19.043Z,7.60
2023-03-14T12:49:05.964Z,9.40
2023-03-14T12:51:46.692Z,7.25
2023-03-14T12:54:48.512Z,9.50
2023-03-14T12:57:28.206Z,13.57
2023-03-14T13:00:18.813Z,9.18
2023-03-14T13:02:49.391Z,12.85
2023-03-14T13:05:24.848Z,11.98
2023-03-14T13:07:56.103Z,19.80
2023-03-14T13:10:48.801Z,11.60
2023-03-14T13:13:26.700Z,16.50
2023-03-14T13:16:01.419Z,12.48
2023-03-14T13:18:42.949Z,15.23
2023-03-14T13:21:20.947Z,17.75
2023-03-14T13:24:01.664Z,13.85
2023-03-14T13:26:47.128Z,11.88
2023-03-14T13:29:26.370Z,13.32
2023-03-14T13:31:59.899Z,16.35
2023-03-14T13:34:34.912Z,9.93
2023-03-14T13:39:30.301Z,18.73
2023-03-14T13:42:02.612Z,10.68
2023-03-14T13:44:39.876Z,14.23
2023-03-14T13:47:16.310Z,15.15
2023-03-14T13:49:44.624Z,13.48
2023-03-14T13:52:37.620Z,14.07
2023-03-14T13:55:07.592Z,17.50
2023-03-14T13:57:52.107Z,8.43
2023-03-14T14:00:27.993Z,8.55
2023-03-14T14:03:01.155Z,8.82
2023-03-14T14:05:30.728Z,7.85
2023-03-14T14:07:57.907Z,5.38
2023-03-14T14:10:29.810Z,7.93
2023-03-14T14:13:03.596Z,9.88
2023-03-14T14:15:44.109Z,11.43
2023-03-14T14:18:17.854Z,8.68
2023-03-14T14:20:48.805Z,6.40
2023-03-14T14:23:29.707Z,7.63
2023-03-14T14:25:58.867Z,9.23
2023-03-14T14:28:30.561Z,9.23
2023-03-14T14:31:16.038Z,6.78
2023-03-14T14:33:59.139Z,5.90
2023-03-14T14:36:30.667Z,5.93
2023-03-14T14:39:19.809Z,8.80
2023-03-14T14:41:51.167Z,9.93
2023-03-14T14:44:29.635Z,4.80
2023-03-14T14:46:59.997Z,6.35
2023-03-14T14:49:34.953Z,5.72
2023-03-14T14:52:14.833Z,5.25
2023-03-14T14:54:59.950Z,4.00
2023-03-14T14:57:37.243Z,7.10
2023-03-14T15:00:17.967Z,6.10
2023-03-14T15:02:54.882Z,9.93
2023-03-14T15:05:31.052Z,9.68
2023-03-14T15:07:58.682Z,3.30
2023-03-14T15:10:26.828Z,5.00
2023-03-14T15:12:54.242Z,5.35
2023-03-14T15:15:21.687Z,3.90
2023-03-14T15:17:53.783Z,8.52
2023-03-14T15:20:24.478Z,6.03
2023-03-14T15:22:51.630Z,4.32
2023-03-14T15:25:43.351Z,3.72
2023-03-14T15:28:21.324Z,6.78
2023-03-14T15:30:51.719Z,6.45
2023-03-14T15:33:19.782Z,4.70
2023-03-14T15:35:48.349Z,7.85
2023-03-14T15:38:23.961Z,6.18
2023-03-14T15:40:53.036Z,4.30
2023-03-14T15:43:21.060Z,4.95
2023-03-14T15:45:48.509Z,3.13
2023-03-14T15:48:22.237Z,3.85
2023-03-14T15:50:49.159Z,5.65
2023-03-14T15:53:16.096Z,5.13
2023-03-14T15:55:43.023Z,5.78
2023-03-14T15:58:21.791Z,4.85
2023-03-14T16:00:51.047Z,8.20
2023-03-14T16:03:18.339Z,5.60
2023-03-14T16:05:45.350Z,2.65
2023-03-14T16:08:12.233Z,7.20
2023-03-14T16:10:39.660Z,7.63
2023-03-14T16:13:06.617Z,5.53
2023-03-14T16:15:33.653Z,8.60
2023-03-14T16:18:02.468Z,4.80
2023-03-14T16:20:45.546Z,5.68
2023-03-14T16:23:16.348Z,2.65
2023-03-14T16:25:45.438Z,3.65
2023-03-14T16:28:12.328Z,5.07
2023-03-14T16:30:41.133Z,8.80
2023-03-14T16:36:06.014Z,10.43
2023-03-14T16:38:34.575Z,4.68
2023-03-14T16:41:19.330Z,4.75
2023-03-14T16:43:52.452Z,5.80
2023-03-14T16:46:22.314Z,3.53
2023-03-14T16:48:49.626Z,7.30
2023-03-14T16:51:17.029Z,7.57
2023-03-14T16:53:45.234Z,8.02
2023-03-14T16:56:13.950Z,4.38
2023-03-14T16:58:42.208Z,8.75
2023-03-14T17:01:12.740Z,5.88
2023-03-14T17:03:46.063Z,10.55
2023-03-14T17:06:23.852Z,2.92
2023-03-14T17:08:51.767Z,4.57
2023-03-14T17:11:19.337Z,4.47
2023-03-14T17:13:46.606Z,7.95
2023-03-14T17:16:13.824Z,5.40
2023-03-14T17:18:40.898Z,7.13
2023-03-14T17:21:08.319Z,7.82
2023-03-14T17:23:35.994Z,5.75
2023-03-14T17:26:03.775Z,8.13
2023-03-14T17:28:30.861Z,6.85
2023-03-14T17:31:08.549Z,8.23
2023-03-14T17:33:36.980Z,5.38
2023-03-14T17:36:05.616Z,4.75
2023-03-14T17:38:35.478Z,4.95
2023-03-14T17:41:02.912Z,4.18
2023-03-14T17:43:29.982Z,5.85
2023-03-14T17:46:02.376Z,5.10
2023-03-14T17:48:29.400Z,10.23
2023-03-14T17:51:00.083Z,14.63
2023-03-14T17:53:27.790Z,4.15
2023-03-14T17:55:54.874Z,9.38
2023-03-14T17:58:21.864Z,9.40
2023-03-14T18:00:48.730Z,9.25
2023-03-14T18:03:15.614Z,9.88
2023-03-14T18:05:42.644Z,6.40
2023-03-14T18:08:14.189Z,12.60
2023-03-14T18:10:41.744Z,24.90
2023-03-14T18:13:08.680Z,9.95
2023-03-14T18:15:35.650Z,10.52
2023-03-14T18:18:02.522Z,10.27
2023-03-14T18:20:30.404Z,10.40
2023-03-14T18:22:57.396Z,5.30
2023-03-14T18:25:24.282Z,9.60
2023-03-14T18:27:51.217Z,6.28
2023-03-14T18:30:21.169Z,10.65
2023-03-14T18:32:48.269Z,6.22
2023-03-14T18:35:15.398Z,6.18
2023-03-14T18:37:43.704Z,6.35
2023-03-14T18:40:16.848Z,13.38
2023-03-14T18:42:44.234Z,14.75
2023-03-14T18:45:12.373Z,6.72
2023-03-14T18:47:39.667Z,6.05
2023-03-14T18:50:08.942Z,8.02
2023-03-14T18:52:36.081Z,9.77
2023-03-14T18:55:03.245Z,7.28
2023-03-14T18:57:30.248Z,7.72
2023-03-14T18:59:58.354Z,6.53
2023-03-14T19:02:26.303Z,8.50
2023-03-14T19:04:53.563Z,4.38
2023-03-14T19:07:23.473Z,14.07
2023-03-14T19:09:50.666Z,3.40
2023-03-14T19:12:18.826Z,6.68
2023-03-14T19:14:45.978Z,3.90
2023-03-14T19:17:12.975Z,5.32
2023-03-14T19:19:39.900Z,5.95
2023-03-14T19:22:06.843Z,7.00
2023-03-14T19:24:34.927Z,8.98
2023-03-14T19:27:01.836Z,7.47
2023-03-14T19:29:28.843Z,4.57
2023-03-14T19:31:56.059Z,8.02
2023-03-14T19:34:23.243Z,9.77
2023-03-14T19:36:50.706Z,6.00
2023-03-14T19:39:17.694Z,8.93
2023-03-14T19:41:44.578Z,5.63
2023-03-14T19:44:13.118Z,4.38
2023-03-14T19:46:41.408Z,9.73
2023-03-14T19:49:08.323Z,5.78
2023-03-14T19:51:35.647Z,7.97
2023-03-14T19:54:03.350Z,7.75
2023-03-14T19:56:30.954Z,15.93
2023-03-14T19:58:57.946Z,7.25
2023-03-14T20:01:25.887Z,9.43
2023-03-14T20:03:53.139Z,7.15
2023-03-14T20:06:21.588Z,13.48
2023-03-14T20:08:48.609Z,16.55
2023-03-14T20:11:15.737Z,10.68
2023-03-14T20:13:44.432Z,13.15
2023-03-14T20:16:11.613Z,8.15
2023-03-14T20:18:39.154Z,10.23
2023-03-14T20:21:09.681Z,11.48
2023-03-14T20:23:36.921Z,6.78
2023-03-14T20:26:04.621Z,9.68
2023-03-14T20:28:32.385Z,9.50
2023-03-14T20:31:01.165Z,5.60
2023-03-14T20:33:28.127Z,17.02
2023-03-14T20:35:59.895Z,8.15
2023-03-14T20:38:27.956Z,10.02
2023-03-14T20:41:01.045Z,6.82
2023-03-14T20:43:30.720Z,10.38
2023-03-14T20:46:00.405Z,5.60
2023-03-14T20:48:30.846Z,6.47
2023-03-14T20:50:58.532Z,5.60
2023-03-14T20:53:25.654Z,4.72
2023-03-14T20:55:57.134Z,10.63
2023-03-14T20:58:25.193Z,14.20
2023-03-14T21:00:54.613Z,9.23
2023-03-14T21:03:24.077Z,8.88
2023-03-14T21:05:52.700Z,8.82
2023-03-14T21:08:23.526Z,11.35
2023-03-14T21:10:53.000Z,7.05
2023-03-14T21:13:20.445Z,11.45
2023-03-14T21:15:47.404Z,10.90
2023-03-14T21:18:15.406Z,10.93
2023-03-14T21:20:43.160Z,10.57
2023-03-14T21:23:14.207Z,9.70
2023-03-14T21:25:44.578Z,8.23
2023-03-14T21:28:12.288Z,8.70
2023-03-14T21:30:39.392Z,8.02
2023-03-14T21:33:06.299Z,8.30
2023-03-14T21:35:33.223Z,9.10
2023-03-14T21:38:00.356Z,5.45
2023-03-14T21:40:27.615Z,9.13
2023-03-14T21:42:55.335Z,8.27
2023-03-14T21:45:26.726Z,11.45
2023-03-14T21:47:55.655Z,6.90
2023-03-14T21:50:25.156Z,9.48
2023-03-14T21:52:56.470Z,13.30
2023-03-14T21:55:25.323Z,11.32
2023-03-14T21:57:55.093Z,13.82
2023-03-14T22:00:23.659Z,10.82
2023-03-14T22:03:11.820Z,5.80
2023-03-14T22:05:44.002Z,9.45
2023-03-14T22:08:13.428Z,13.80
2023-03-14T22:10:58.564Z,6.15
2023-03-14T22:13:25.859Z,12.70
2023-03-14T22:15:52.801Z,11.73
2023-03-14T22:18:19.960Z,11.43
2023-03-14T22:20:47.452Z,5.97
2023-03-14T22:23:14.814Z,8.52
2023-03-14T22:25:49.555Z,14.65
2023-03-14T22:28:18.701Z,8.30
2023-03-14T22:30:51.585Z,4.15
2023-03-14T22:33:19.787Z,11.75
2023-03-14T22:35:51.998Z,8.77
2023-03-14T22:38:19.572Z,9.15
2023-03-14T22:40:47.187Z,9.65
2023-03-14T22:43:14.323Z,9.15
2023-03-14T22:45:41.281Z,10.15
2023-03-14T22:48:08.594Z,9.52
2023-03-14T22:50:38.627Z,6.75
2023-03-14T22:53:05.641Z,9.32
2023-03-14T22:55:32.546Z,8.80
2023-03-14T22:57:59.525Z,8.15
2023-03-14T23:00:27.062Z,10.27
2023-03-14T23:02:54.843Z,9.90
2023-03-14T23:05:22.564Z,8.25
2023-03-14T23:07:49.476Z,8.43
2023-03-14T23:10:17.030Z,12.38
2023-03-14T23:12:45.249Z,13.82
2023-03-14T23:15:16.115Z,24.48
2023-03-14T23:17:44.875Z,15.60
2023-03-14T23:20:12.888Z,18.08
2023-03-14T23:22:39.999Z,11.70
2023-03-14T23:25:08.786Z,12.45
2023-03-14T23:27:35.770Z,9.35
2023-03-14T23:30:04.554Z,9.70
2023-03-14T23:32:32.076Z,8.52
2023-03-14T23:34:58.949Z,6.97
2023-03-14T23:37:26.114Z,12.65
2023-03-14T23:39:53.063Z,11.10
2023-03-14T23:42:20.308Z,5.50
2023-03-14T23:44:47.155Z,9.40
2023-03-14T23:47:14.479Z,9.35
2023-03-14T23:49:41.747Z,9.00
2023-03-14T23:52:09.463Z,14.68
2023-03-14T23:54:36.686Z,7.90
2023-03-14T23:57:05.381Z,7.13
2023-03-14T23:59:33.516Z,6.45
